Time;durP1;ratioP1;P1;durP2;ratioP2;P2;SDS_P1;SDS_P2;PMS_P1;PMS_P2;Temp;Humidity;BMP_temperature;BMP_pressure;BME280_temperature;BME280_humidity;BME280_pressure;Samples;Min_cycle;Max_cycle;Signal;HPM_P1;HPM_P2
2021/05/05 00:00:21;;;;;;;4.10;0.60;;;8.00;99.90;;;;;;5033033;28;20222;-67
2021/05/05 00:02:47;;;;;;;3.97;0.40;;;8.10;99.90;;;;;;5047793;28;20215;-67
2021/05/05 00:05:13;;;;;;;3.90;0.30;;;8.10;99.90;;;;;;5033510;28;20203;-66
2021/05/05 00:07:39;;;;;;;4.00;0.47;;;8.10;99.90;;;;;;5022399;28;20179;-66
2021/05/05 00:10:06;;;;;;;4.50;0.43;;;8.10;99.90;;;;;;5013500;28;20531;-67
2021/05/05 00:12:32;;;;;;;4.00;0.30;;;8.10;99.90;;;;;;5021534;28;20422;-65
2021/05/05 00:14:58;;;;;;;4.00;0.43;;;8.00;99.90;;;;;;5033073;28;20231;-66
2021/05/05 00:17:24;;;;;;;4.00;0.50;;;8.10;99.90;;;;;;5031858;28;20537;-67
2021/05/05 00:19:49;;;;;;;4.00;0.40;;;8.00;99.90;;;;;;5030438;28;20262;-66
2021/05/05 00:22:16;;;;;;;3.93;0.40;;;8.00;99.90;;;;;;5015343;28;20258;-65
2021/05/05 00:24:42;;;;;;;4.00;0.40;;;8.00;99.90;;;;;;5022437;28;20176;-65
2021/05/05 00:27:07;;;;;;;3.97;0.40;;;8.00;99.90;;;;;;5013237;28;20178;-66
2021/05/05 00:29:33;;;;;;;5.10;0.67;;;7.90;99.90;;;;;;5020440;28;20280;-66
2021/05/05 00:31:59;;;;;;;4.07;0.63;;;8.00;99.90;;;;;;5031829;28;20178;-67
2021/05/05 00:34:24;;;;;;;4.00;0.40;;;7.90;99.90;;;;;;5025590;28;20182;-67
2021/05/05 00:36:50;;;;;;;4.00;0.50;;;7.90;99.90;;;;;;5013549;28;20693;-66
2021/05/05 00:39:16;;;;;;;4.00;0.50;;;7.90;99.90;;;;;;5026829;28;20211;-66
2021/05/05 00:41:41;;;;;;;4.00;0.40;;;7.90;99.90;;;;;;5021648;28;20178;-67
2021/05/05 00:44:07;;;;;;;3.97;0.30;;;7.90;99.90;;;;;;5020642;28;20637;-67
2021/05/05 00:46:33;;;;;;;3.97;0.50;;;7.90;99.90;;;;;;5036572;28;20224;-67
2021/05/05 00:48:58;;;;;;;4.20;0.63;;;7.90;99.90;;;;;;5034177;28;20203;-67
2021/05/05 00:51:24;;;;;;;3.90;0.30;;;7.90;99.90;;;;;;5031894;28;20193;-65
2021/05/05 00:53:50;;;;;;;3.97;0.40;;;7.90;99.90;;;;;;5036011;28;20175;-67
2021/05/05 00:56:16;;;;;;;4.03;0.50;;;7.90;99.90;;;;;;5029134;28;20197;-66
2021/05/05 00:58:42;;;;;;;4.00;0.40;;;7.90;99.90;;;;;;5036150;28;20295;-66
2021/05/05 01:01:08;;;;;;;3.95;0.40;;;7.90;99.90;;;;;;5031314;28;20269;-66
2021/05/05 01:03:33;;;;;;;4.00;0.40;;;7.90;99.90;;;;;;5036539;28;20285;-67
2021/05/05 01:06:01;;;;;;;3.93;0.50;;;7.90;99.90;;;;;;5031272;28;20174;-65
2021/05/05 01:08:27;;;;;;;4.00;0.50;;;7.90;99.90;;;;;;5020452;28;20201;-65
2021/05/05 01:10:53;;;;;;;4.10;0.50;;;7.90;99.90;;;;;;5030160;28;20230;-66
2021/05/05 01:13:19;;;;;;;4.10;0.60;;;7.80;99.90;;;;;;5036381;28;20621;-66
2021/05/05 01:15:45;;;;;;;4.00;0.40;;;7.80;99.90;;;;;;5021693;28;20197;-66
2021/05/05 01:18:11;;;;;;;3.93;0.50;;;7.80;99.90;;;;;;5016260;28;20221;-66
2021/05/05 01:20:38;;;;;;;4.00;0.60;;;7.80;99.90;;;;;;5027432;28;20175;-67
2021/05/05 01:23:04;;;;;;;4.10;0.50;;;7.90;99.90;;;;;;5028286;28;20576;-65
2021/05/05 01:25:30;;;;;;;3.97;0.40;;;7.80;99.90;;;;;;5026148;28;20176;-66
2021/05/05 01:27:56;;;;;;;3.97;0.40;;;7.90;99.90;;;;;;5029342;28;21052;-66
2021/05/05 01:30:23;;;;;;;4.40;0.90;;;7.90;99.90;;;;;;5027696;28;20250;-66
2021/05/05 01:32:49;;;;;;;3.97;0.40;;;7.80;99.90;;;;;;5031008;28;20520;-67
2021/05/05 01:35:17;;;;;;;4.00;0.40;;;7.80;99.90;;;;;;5015912;28;20601;-65
2021/05/05 01:37:43;;;;;;;4.00;0.50;;;7.80;99.90;;;;;;5018241;28;20178;-67
2021/05/05 01:40:15;;;;;;;4.00;0.50;;;7.80;99.90;;;;;;5026154;28;20179;-66
2021/05/05 01:42:41;;;;;;;4.95;0.60;;;7.90;99.90;;;;;;5017995;28;20749;-66
2021/05/05 01:45:07;;;;;;;3.97;0.40;;;7.80;99.90;;;;;;5035783;28;20173;-66
2021/05/05 01:47:33;;;;;;;5.85;0.50;;;7.90;99.90;;;;;;5032700;28;20244;-67
2021/05/05 01:49:59;;;;;;;3.90;0.40;;;7.90;99.90;;;;;;5035443;28;20197;-65
2021/05/05 01:52:24;;;;;;;3.97;0.40;;;7.90;99.90;;;;;;5035153;28;20433;-66
2021/05/05 01:54:50;;;;;;;3.97;0.50;;;7.90;99.90;;;;;;5016083;28;20784;-65
2021/05/05 01:57:24;;;;;;;4.40;0.80;;;7.90;99.90;;;;;;5022219;28;20258;-66
2021/05/05 01:59:51;;;;;;;3.97;0.30;;;7.90;99.90;;;;;;5035474;28;20226;-65
2021/05/05 02:02:17;;;;;;;3.97;0.50;;;7.90;99.90;;;;;;5033950;28;20194;-66
2021/05/05 02:04:43;;;;;;;3.90;0.40;;;7.90;99.90;;;;;;5015598;28;20171;-67
2021/05/05 02:07:09;;;;;;;3.95;0.40;;;7.90;99.90;;;;;;5016149;28;20540;-66
2021/05/05 02:09:34;;;;;;;4.23;0.67;;;7.90;99.90;;;;;;5015316;28;20182;-65
2021/05/05 02:12:00;;;;;;;4.10;0.50;;;7.90;99.90;;;;;;5026903;28;20190;-66
2021/05/05 02:14:25;;;;;;;4.13;0.47;;;7.80;99.90;;;;;;5035222;28;20199;-68
2021/05/05 02:16:56;;;;;;;4.00;0.40;;;7.80;99.90;;;;;;5018314;28;20202;-67
2021/05/05 02:19:21;;;;;;;4.00;0.40;;;7.80;99.90;;;;;;5015307;28;20549;-67
2021/05/05 02:21:47;;;;;;;3.93;0.40;;;7.80;99.90;;;;;;5029334;28;20273;-66
2021/05/05 02:24:12;;;;;;;3.90;0.40;;;7.80;99.90;;;;;;5034623;28;20181;-67
2021/05/05 02:26:38;;;;;;;3.97;0.50;;;7.80;99.90;;;;;;5022799;28;20235;-67
2021/05/05 02:29:04;;;;;;;4.00;0.70;;;7.80;99.90;;;;;;5025339;28;20197;-66
2021/05/05 02:31:29;;;;;;;3.97;0.47;;;7.70;99.90;;;;;;5015102;28;20171;-67
2021/05/05 02:33:55;;;;;;;4.00;0.50;;;7.70;99.90;;;;;;5020488;28;20622;-67
2021/05/05 02:36:21;;;;;;;4.20;0.50;;;7.70;99.90;;;;;;5014467;28;20638;-66
2021/05/05 02:38:46;;;;;;;5.63;0.67;;;7.80;99.90;;;;;;5020325;28;20285;-67
2021/05/05 02:41:12;;;;;;;4.30;0.57;;;7.80;99.90;;;;;;5034764;28;20167;-66
2021/05/05 02:43:37;;;;;;;3.93;0.40;;;7.70;99.90;;;;;;5029581;28;20289;-65
2021/05/05 02:46:03;;;;;;;4.10;0.53;;;7.80;99.90;;;;;;5026953;28;20583;-65
2021/05/05 02:48:29;;;;;;;4.10;0.60;;;7.70;99.90;;;;;;5020294;28;20197;-67
2021/05/05 02:50:54;;;;;;;4.00;0.50;;;7.70;99.90;;;;;;5034075;28;20190;-67
2021/05/05 02:53:20;;;;;;;4.00;0.40;;;7.70;99.90;;;;;;5031781;28;20550;-66
2021/05/05 02:55:46;;;;;;;4.10;0.60;;;7.70;99.90;;;;;;5014240;28;20173;-67
2021/05/05 02:58:11;;;;;;;3.93;0.40;;;7.70;99.90;;;;;;5025724;28;20446;-66
2021/05/05 03:00:37;;;;;;;4.00;0.50;;;7.70;99.90;;;;;;5014491;28;20181;-68
2021/05/05 03:03:03;;;;;;;4.10;0.50;;;7.60;99.90;;;;;;5027984;28;20203;-67
2021/05/05 03:05:28;;;;;;;4.00;0.53;;;7.60;99.90;;;;;;5014663;28;20184;-66
2021/05/05 03:07:54;;;;;;;4.00;0.50;;;7.60;99.90;;;;;;5015605;28;20175;-68
2021/05/05 03:10:20;;;;;;;4.00;0.50;;;7.60;99.90;;;;;;5016303;28;20199;-67
2021/05/05 03:12:45;;;;;;;4.00;0.40;;;7.60;99.90;;;;;;5014421;28;20255;-66
2021/05/05 03:15:11;;;;;;;4.10;0.70;;;7.60;99.90;;;;;;5029911;28;20210;-66
2021/05/05 03:17:38;;;;;;;4.20;0.73;;;7.60;99.90;;;;;;5033205;28;20181;-68
2021/05/05 03:20:09;;;;;;;4.00;0.40;;;7.50;99.90;;;;;;5019944;28;20587;-68
2021/05/05 03:22:35;;;;;;;4.00;0.40;;;7.50;99.90;;;;;;5013826;28;20226;-67
2021/05/05 03:25:00;;;;;;;4.85;1.02;;;7.50;99.90;;;;;;5028185;28;20630;-67
2021/05/05 03:27:26;;;;;;;3.97;0.50;;;7.50;99.90;;;;;;5027024;28;20187;-68
2021/05/05 03:29:52;;;;;;;3.90;0.40;;;7.50;99.90;;;;;;5033775;28;20614;-66
2021/05/05 03:32:17;;;;;;;4.10;0.60;;;7.50;99.90;;;;;;5029245;28;20529;-68
2021/05/05 03:34:43;;;;;;;4.40;0.73;;;7.50;99.90;;;;;;5033456;28;20537;-67
2021/05/05 03:37:09;;;;;;;3.97;0.50;;;7.50;99.90;;;;;;5032319;28;20178;-68
2021/05/05 03:39:34;;;;;;;4.00;0.60;;;7.50;99.90;;;;;;5032935;28;20553;-68
2021/05/05 03:42:00;;;;;;;3.93;0.63;;;7.50;99.90;;;;;;5046640;28;20201;-66
2021/05/05 03:44:26;;;;;;;3.90;0.67;;;7.50;99.90;;;;;;5033642;28;20179;-67
2021/05/05 03:46:52;;;;;;;5.07;0.83;;;7.50;99.90;;;;;;5029454;28;20175;-67
2021/05/05 03:49:17;;;;;;;3.90;0.47;;;7.50;99.90;;;;;;5013614;28;20198;-67
2021/05/05 03:51:43;;;;;;;4.27;0.60;;;7.50;99.90;;;;;;5016132;28;20265;-68
2021/05/05 03:54:09;;;;;;;3.90;0.50;;;7.50;99.90;;;;;;5032019;28;20177;-67
2021/05/05 03:56:35;;;;;;;4.10;0.50;;;7.50;99.90;;;;;;5014170;28;20177;-66
2021/05/05 03:59:00;;;;;;;3.90;0.53;;;7.50;99.90;;;;;;5031088;28;20443;-69
2021/05/05 04:01:26;;;;;;;4.20;0.50;;;7.50;99.90;;;;;;5032571;28;20281;-68
2021/05/05 04:03:52;;;;;;;4.00;0.60;;;7.50;99.90;;;;;;5013892;28;20681;-67
2021/05/05 04:06:17;;;;;;;3.90;0.40;;;7.50;99.90;;;;;;5013320;28;20180;-67
2021/05/05 04:08:43;;;;;;;3.90;0.40;;;7.50;99.90;;;;;;5031093;28;20275;-67
2021/05/05 04:11:09;;;;;;;4.03;0.43;;;7.50;99.90;;;;;;5013525;28;20173;-67
2021/05/05 04:13:34;;;;;;;4.60;0.60;;;7.50;99.90;;;;;;5030619;28;20238;-66
2021/05/05 04:16:00;;;;;;;3.97;0.50;;;7.50;99.90;;;;;;5037015;28;20197;-68
2021/05/05 04:18:29;;;;;;;3.90;0.40;;;7.50;99.90;;;;;;5021552;28;20200;-66
2021/05/05 04:21:00;;;;;;;4.20;0.60;;;7.50;99.90;;;;;;5017197;28;20171;-67
2021/05/05 04:23:26;;;;;;;4.00;0.65;;;7.50;99.90;;;;;;5032413;28;20201;-66
2021/05/05 04:25:52;;;;;;;3.92;0.55;;;7.50;99.90;;;;;;5026248;28;20170;-68
2021/05/05 04:28:17;;;;;;;4.30;0.60;;;7.60;99.90;;;;;;5021939;28;20686;-65
2021/05/05 04:30:43;;;;;;;4.77;0.70;;;7.60;99.90;;;;;;5017143;28;20183;-67
2021/05/05 04:33:09;;;;;;;4.00;0.63;;;7.60;99.90;;;;;;5020094;28;20177;-67
2021/05/05 04:35:34;;;;;;;3.83;0.37;;;7.60;99.90;;;;;;5037023;28;20420;-68
2021/05/05 04:38:00;;;;;;;7.70;0.70;;;7.60;99.90;;;;;;5035001;28;20611;-69
2021/05/05 04:40:26;;;;;;;4.00;0.50;;;7.50;99.90;;;;;;5017324;28;20175;-67
2021/05/05 04:42:51;;;;;;;4.00;0.60;;;7.50;99.90;;;;;;5017064;28;20670;-67
2021/05/05 04:45:17;;;;;;;4.27;0.47;;;7.50;99.90;;;;;;5021699;28;20233;-67
2021/05/05 04:47:43;;;;;;;3.90;0.40;;;7.50;99.90;;;;;;5016563;28;20585;-67
2021/05/05 04:50:11;;;;;;;4.00;0.50;;;7.40;99.90;;;;;;5017059;28;20175;-68
2021/05/05 04:52:37;;;;;;;3.90;0.50;;;7.40;99.90;;;;;;5016881;28;20187;-68
2021/05/05 04:55:04;;;;;;;3.90;0.40;;;7.40;99.90;;;;;;5032429;28;20181;-69
2021/05/05 04:57:30;;;;;;;3.83;0.40;;;7.40;99.90;;;;;;5036052;28;20232;-66
2021/05/05 04:59:56;;;;;;;4.20;0.70;;;7.40;99.90;;;;;;5020528;28;20198;-68
2021/05/05 05:02:21;;;;;;;4.00;0.50;;;7.40;99.90;;;;;;5016596;28;20195;-67
2021/05/05 05:04:47;;;;;;;3.83;0.50;;;7.40;99.90;;;;;;5028752;28;20201;-68
2021/05/05 05:07:13;;;;;;;4.82;0.63;;;7.40;99.90;;;;;;5023407;28;20224;-67
2021/05/05 05:09:39;;;;;;;4.00;0.43;;;7.40;99.90;;;;;;5025069;28;20270;-69
2021/05/05 05:12:05;;;;;;;3.90;0.50;;;7.40;99.90;;;;;;5035951;28;20189;-69
2021/05/05 05:14:31;;;;;;;3.83;0.40;;;7.50;99.90;;;;;;5030670;28;20184;-69
2021/05/05 05:16:58;;;;;;;7.97;0.73;;;7.50;99.90;;;;;;5034619;28;20536;-68
2021/05/05 05:19:23;;;;;;;4.32;0.73;;;7.50;99.90;;;;;;5028518;28;20203;-70
2021/05/05 05:21:49;;;;;;;3.80;0.40;;;7.50;99.90;;;;;;5035215;28;20183;-68
2021/05/05 05:24:15;;;;;;;3.93;0.60;;;7.50;99.90;;;;;;5035135;28;20172;-68
2021/05/05 05:26:40;;;;;;;4.20;0.70;;;7.60;99.90;;;;;;5034931;28;20193;-68
2021/05/05 05:29:06;;;;;;;3.80;0.40;;;7.60;99.90;;;;;;5030546;28;20669;-69
2021/05/05 05:31:32;;;;;;;3.90;0.50;;;7.60;99.90;;;;;;5033424;28;20191;-67
2021/05/05 05:33:58;;;;;;;4.00;0.60;;;7.60;99.90;;;;;;5033719;28;20219;-68
2021/05/05 05:36:24;;;;;;;3.90;0.40;;;7.60;99.90;;;;;;5029826;28;21442;-65
2021/05/05 05:38:49;;;;;;;3.90;0.50;;;7.60;99.90;;;;;;5032901;28;20199;-65
2021/05/05 05:41:15;;;;;;;3.90;0.40;;;7.70;99.90;;;;;;5035830;28;20226;-65
2021/05/05 05:43:41;;;;;;;3.93;0.50;;;7.70;99.90;;;;;;5052953;28;20193;-66
2021/05/05 05:46:07;;;;;;;4.20;0.60;;;7.80;99.90;;;;;;5028381;28;20184;-66
2021/05/05 05:48:32;;;;;;;3.97;0.40;;;7.90;99.90;;;;;;5038932;28;20254;-65
2021/05/05 05:50:59;;;;;;;4.00;0.60;;;7.90;99.90;;;;;;5043179;28;20181;-63
2021/05/05 05:53:25;;;;;;;4.15;0.55;;;8.10;99.90;;;;;;5032935;28;20236;-66
2021/05/05 05:55:50;;;;;;;4.10;0.90;;;8.20;99.90;;;;;;5034611;28;20180;-66
2021/05/05 05:58:16;;;;;;;3.90;0.53;;;8.30;99.90;;;;;;5033303;28;20205;-67
2021/05/05 06:00:42;;;;;;;3.90;0.52;;;8.40;99.90;;;;;;5035572;28;20176;-67
2021/05/05 06:03:08;;;;;;;3.97;0.50;;;8.50;99.90;;;;;;5035142;28;20196;-67
2021/05/05 06:05:35;;;;;;;4.10;0.60;;;8.50;99.90;;;;;;5028079;28;20170;-64
2021/05/05 06:08:02;;;;;;;4.10;0.60;;;8.50;99.90;;;;;;5034871;28;20756;-65
2021/05/05 06:10:27;;;;;;;4.05;0.50;;;8.50;99.90;;;;;;5034179;28;20209;-62
2021/05/05 06:12:53;;;;;;;4.17;0.57;;;8.60;99.90;;;;;;5033991;28;20677;-63
2021/05/05 06:15:20;;;;;;;4.30;0.70;;;8.70;99.90;;;;;;5033303;28;20849;-63
2021/05/05 06:17:46;;;;;;;4.20;1.10;;;8.70;99.90;;;;;;5034276;28;20240;-65
2021/05/05 06:20:12;;;;;;;3.92;0.50;;;8.80;99.90;;;;;;5028741;28;20178;-65
2021/05/05 06:22:38;;;;;;;4.10;0.60;;;9.00;99.90;;;;;;5014755;28;20197;-63
2021/05/05 06:25:06;;;;;;;4.05;0.60;;;9.10;99.90;;;;;;5025048;28;20166;-65
2021/05/05 06:27:32;;;;;;;3.90;0.40;;;9.20;99.90;;;;;;5033613;28;20194;-63
2021/05/05 06:29:57;;;;;;;6.00;0.67;;;9.30;99.90;;;;;;5036674;28;20201;-65
2021/05/05 06:32:23;;;;;;;5.40;1.03;;;9.40;99.90;;;;;;5034632;28;20166;-64
2021/05/05 06:34:49;;;;;;;5.00;1.10;;;9.50;99.90;;;;;;5030585;28;20660;-64
2021/05/05 06:37:16;;;;;;;4.05;0.63;;;9.70;99.90;;;;;;5032939;28;20182;-64
2021/05/05 06:39:42;;;;;;;4.00;0.60;;;9.90;99.90;;;;;;5033286;28;20568;-65
2021/05/05 06:42:08;;;;;;;4.40;1.40;;;10.10;99.90;;;;;;5034399;28;20195;-65
2021/05/05 06:44:33;;;;;;;4.20;0.73;;;10.30;99.90;;;;;;5034596;28;20174;-67
2021/05/05 06:46:59;;;;;;;4.40;0.60;;;10.40;99.90;;;;;;5031092;28;20220;-68
2021/05/05 06:49:25;;;;;;;4.97;1.00;;;10.60;99.90;;;;;;5029450;28;20206;-66
2021/05/05 06:51:53;;;;;;;4.00;0.60;;;10.80;99.90;;;;;;5022558;28;20652;-67
2021/05/05 06:54:19;;;;;;;10.13;1.38;;;10.80;99.90;;;;;;5025274;28;20186;-67
2021/05/05 06:56:45;;;;;;;4.00;0.60;;;10.80;99.90;;;;;;5027863;28;20189;-65
2021/05/05 06:59:21;;;;;;;3.90;0.50;;;10.90;99.90;;;;;;5085535;27;20589;-65
2021/05/05 07:01:47;;;;;;;4.05;0.75;;;11.10;99.90;;;;;;5063381;28;20539;-65
2021/05/05 07:04:12;;;;;;;5.60;1.03;;;11.30;99.90;;;;;;5066146;28;20173;-64
2021/05/05 07:06:38;;;;;;;3.80;0.80;;;11.50;99.90;;;;;;5066562;28;20172;-66
2021/05/05 07:09:05;;;;;;;6.03;1.97;;;11.70;99.90;;;;;;5068028;28;20197;-66
2021/05/05 07:11:34;;;;;;;4.07;0.77;;;11.80;99.90;;;;;;5073074;28;20186;-66
2021/05/05 07:14:00;;;;;;;3.63;1.00;;;11.90;99.90;;;;;;5068627;28;20505;-66
2021/05/05 07:16:26;;;;;;;4.73;0.57;;;12.00;99.90;;;;;;5065549;28;21414;-67
2021/05/05 07:18:51;;;;;;;3.43;0.57;;;12.30;99.90;;;;;;5069161;28;20464;-66
2021/05/05 07:21:17;;;;;;;4.07;0.73;;;12.50;99.90;;;;;;5069112;28;20173;-67
2021/05/05 07:23:43;;;;;;;4.40;1.00;;;12.60;99.90;;;;;;5068808;28;20627;-64
2021/05/05 07:26:11;;;;;;;3.90;0.90;;;12.70;99.90;;;;;;5064179;28;20458;-66
2021/05/05 07:28:37;;;;;;;5.23;0.87;;;12.80;99.90;;;;;;5069161;28;20444;-64
2021/05/05 07:31:04;;;;;;;3.40;0.73;;;12.80;99.90;;;;;;5069095;28;20427;-65
2021/05/05 07:33:30;;;;;;;3.63;0.73;;;12.60;99.90;;;;;;5067198;28;20421;-65
2021/05/05 07:35:57;;;;;;;5.73;1.13;;;12.60;99.90;;;;;;5068909;28;20422;-67
2021/05/05 07:44:26;;;;;;;4.53;1.10;;;15.00;97.00;;;;;;5069843;28;20452;-63
2021/05/05 07:48:53;;;;;;;4.10;0.97;;;15.90;94.70;;;;;;5069087;28;20468;-66
2021/05/05 07:51:19;;;;;;;4.87;0.80;;;16.20;92.60;;;;;;5069303;28;20176;-66
2021/05/05 07:53:44;;;;;;;3.10;0.83;;;16.00;91.30;;;;;;5069481;28;20460;-64
2021/05/05 07:56:10;;;;;;;3.13;0.90;;;15.20;90.90;;;;;;5068587;28;20430;-69
2021/05/05 07:58:36;;;;;;;5.50;0.60;;;14.80;92.10;;;;;;5068243;28;20585;-65
2021/05/05 08:01:03;;;;;;;5.00;1.40;;;15.40;91.90;;;;;;5077480;28;20456;-65
2021/05/05 08:03:28;;;;;;;3.23;0.70;;;16.30;85.20;;;;;;5073860;28;20192;-66
2021/05/05 08:05:54;;;;;;;3.00;0.70;;;17.10;84.50;;;;;;5068663;28;20485;-66
2021/05/05 08:08:20;;;;;;;2.97;0.70;;;17.80;80.30;;;;;;5069250;28;20198;-66
2021/05/05 08:10:46;;;;;;;2.77;0.70;;;18.00;79.00;;;;;;5055426;28;20412;-65
2021/05/05 08:13:11;;;;;;;6.50;1.80;;;17.00;76.50;;;;;;5055830;28;20170;-66
2021/05/05 08:15:37;;;;;;;3.13;0.90;;;16.50;77.20;;;;;;5055758;28;20233;-68
2021/05/05 08:18:04;;;;;;;2.80;0.70;;;17.10;79.90;;;;;;5055441;28;20204;-66
2021/05/05 08:20:34;;;;;;;3.20;0.93;;;18.30;77.10;;;;;;5055444;28;20216;-69
2021/05/05 08:22:59;;;;;;;4.00;0.70;;;19.60;73.30;;;;;;5065540;28;20430;-68
2021/05/05 08:25:25;;;;;;;3.07;0.60;;;20.00;66.80;;;;;;5073445;28;20754;-71
2021/05/05 08:27:51;;;;;;;2.40;0.60;;;19.70;66.80;;;;;;5055063;28;20664;-74
2021/05/05 08:30:17;;;;;;;2.87;0.77;;;18.70;65.60;;;;;;5055669;28;20539;-73
2021/05/05 08:32:46;;;;;;;2.50;0.70;;;17.60;67.60;;;;;;5055628;28;20404;-73
2021/05/05 08:35:13;;;;;;;5.63;0.70;;;16.40;69.10;;;;;;5061191;28;20430;-74
2021/05/05 08:37:39;;;;;;;3.30;0.80;;;15.50;72.20;;;;;;5058813;28;20831;-66
2021/05/05 08:40:09;;;;;;;2.63;0.77;;;14.90;78.50;;;;;;5056400;28;20431;-64
2021/05/05 08:42:34;;;;;;;3.53;0.90;;;15.40;81.90;;;;;;5052171;28;20506;-65
2021/05/05 08:45:00;;;;;;;3.20;0.90;;;16.40;76.20;;;;;;5043424;28;20496;-64
2021/05/05 08:47:26;;;;;;;3.30;1.00;;;16.40;72.70;;;;;;5056057;28;20220;-65
2021/05/05 08:49:53;;;;;;;2.60;0.80;;;16.10;74.50;;;;;;5046281;28;20444;-68
2021/05/05 08:52:19;;;;;;;2.80;0.63;;;16.60;74.80;;;;;;5048082;28;20770;-68
2021/05/05 08:54:46;;;;;;;4.13;1.43;;;17.40;72.00;;;;;;5055216;28;20427;-65
2021/05/05 08:57:14;;;;;;;4.03;0.80;;;18.60;69.60;;;;;;5065171;28;20207;-65
2021/05/05 08:59:39;;;;;;;2.47;0.70;;;19.70;65.20;;;;;;5057996;28;20944;-66
2021/05/05 09:02:05;;;;;;;2.97;1.23;;;20.60;60.40;;;;;;5054844;28;20523;-64
2021/05/05 09:04:32;;;;;;;2.90;1.10;;;21.70;61.20;;;;;;5047662;28;20272;-68
2021/05/05 09:06:59;;;;;;;2.80;0.70;;;22.40;58.50;;;;;;5054466;28;20174;-67
2021/05/05 09:09:41;;;;;;;2.47;0.80;;;23.20;56.80;;;;;;5043774;28;20514;-66
2021/05/05 09:12:17;;;;;;;2.10;0.50;;;23.30;55.40;;;;;;5037125;28;20406;-67
2021/05/05 09:14:54;;;;;;;3.00;0.70;;;23.30;54.80;;;;;;5036456;28;21425;-66
2021/05/05 09:17:26;;;;;;;3.87;0.90;;;23.50;53.90;;;;;;5050308;28;20777;-66
2021/05/05 09:20:06;;;;;;;2.67;0.80;;;23.60;51.50;;;;;;5054546;28;20428;-65
2021/05/05 09:22:55;;;;;;;3.07;1.03;;;23.60;51.10;;;;;;5048117;28;20390;-63
2021/05/05 09:25:44;;;;;;;3.53;1.37;;;23.30;52.70;;;;;;5050433;28;20390;-67
2021/05/05 09:28:17;;;;;;;3.40;1.00;;;22.60;52.40;;;;;;5054098;28;20428;-66
2021/05/05 09:30:44;;;;;;;2.53;0.77;;;23.00;51.10;;;;;;5052248;28;20390;-66
2021/05/05 09:33:21;;;;;;;2.07;0.50;;;23.70;49.70;;;;;;5051871;28;20430;-67
2021/05/05 09:35:59;;;;;;;2.20;0.70;;;24.30;49.60;;;;;;5034014;28;20387;-67
2021/05/05 09:38:45;;;;;;;2.90;1.00;;;25.00;48.70;;;;;;5044624;28;20431;-69
2021/05/05 09:41:33;;;;;;;4.70;0.90;;;24.60;47.00;;;;;;5034382;28;20765;-65
2021/05/05 09:44:08;;;;;;;2.47;0.80;;;24.40;47.40;;;;;;5046986;28;20398;-67
2021/05/05 09:46:47;;;;;;;3.23;0.93;;;24.20;47.50;;;;;;5052217;28;20431;-65
2021/05/05 09:49:37;;;;;;;2.30;0.80;;;25.00;47.60;;;;;;5066450;28;20421;-66
2021/05/05 09:52:19;;;;;;;2.20;0.60;;;25.60;45.60;;;;;;5054463;28;20395;-66
2021/05/05 09:55:02;;;;;;;2.20;0.70;;;25.90;44.50;;;;;;5050505;28;20929;-67
2021/05/05 09:57:36;;;;;;;2.60;0.93;;;24.80;42.50;;;;;;5037691;28;20460;-69
2021/05/05 10:00:18;;;;;;;2.27;0.70;;;24.20;42.70;;;;;;5048045;28;20442;-66
2021/05/05 10:02:49;;;;;;;2.30;0.80;;;23.50;43.30;;;;;;5052295;28;20391;-66
2021/05/05 10:05:20;;;;;;;3.07;1.00;;;23.70;43.80;;;;;;5035654;28;20947;-67
2021/05/05 10:07:59;;;;;;;2.27;0.70;;;23.70;42.70;;;;;;5033031;28;20725;-65
2021/05/05 10:10:29;;;;;;;2.30;0.60;;;22.90;43.70;;;;;;5065222;28;20795;-66
2021/05/05 10:12:57;;;;;;;2.30;0.70;;;21.70;44.90;;;;;;5043494;28;20456;-68
2021/05/05 10:15:23;;;;;;;2.40;0.90;;;20.10;47.40;;;;;;5044048;28;20399;-68
2021/05/05 10:17:51;;;;;;;2.40;0.70;;;18.80;48.20;;;;;;5048634;28;20492;-63
2021/05/05 10:20:29;;;;;;;2.60;1.20;;;18.40;47.90;;;;;;5043430;28;20791;-64
2021/05/05 10:23:02;;;;;;;2.40;0.70;;;17.90;48.40;;;;;;5049691;28;20433;-65
2021/05/05 10:25:30;;;;;;;2.13;0.60;;;17.30;47.70;;;;;;5033440;28;20423;-62
2021/05/05 10:27:56;;;;;;;2.60;0.60;;;16.80;49.30;;;;;;5049429;28;20478;-63
2021/05/05 10:30:33;;;;;;;2.97;0.90;;;17.00;49.20;;;;;;5052103;28;20487;-63
2021/05/05 10:33:00;;;;;;;5.13;1.17;;;17.40;48.60;;;;;;5032966;28;20428;-64
2021/05/05 10:35:26;;;;;;;2.60;0.60;;;18.00;48.80;;;;;;5035536;28;20401;-64
2021/05/05 10:38:00;;;;;;;2.77;1.00;;;18.50;48.10;;;;;;5051585;28;20792;-66
2021/05/05 10:40:33;;;;;;;2.30;0.80;;;18.30;46.40;;;;;;5039361;28;20889;-65
2021/05/05 10:43:01;;;;;;;2.57;1.33;;;17.90;47.60;;;;;;5032942;28;20420;-65
2021/05/05 10:45:32;;;;;;;2.30;0.60;;;17.20;49.20;;;;;;5054467;28;20391;-64
2021/05/05 10:48:07;;;;;;;2.50;1.13;;;17.00;52.00;;;;;;5057138;28;20858;-65
2021/05/05 10:50:47;;;;;;;2.70;0.87;;;16.70;50.30;;;;;;5049208;28;20419;-67
2021/05/05 10:53:14;;;;;;;2.60;1.03;;;16.10;52.40;;;;;;5052175;28;20460;-67
2021/05/05 10:55:53;;;;;;;2.10;0.53;;;15.20;54.80;;;;;;5062712;28;20420;-66
2021/05/05 10:58:30;;;;;;;2.40;0.70;;;14.00;63.70;;;;;;5049555;28;20475;-65
2021/05/05 11:01:07;;;;;;;2.00;0.40;;;12.50;74.90;;;;;;5057162;28;20957;-64
2021/05/05 11:03:41;;;;;;;2.20;0.50;;;11.20;86.40;;;;;;5051066;28;20763;-68
2021/05/05 11:06:29;;;;;;;2.50;0.60;;;10.20;94.90;;;;;;5058920;28;20507;-67
2021/05/05 11:09:10;;;;;;;2.10;0.30;;;9.20;99.90;;;;;;5036093;28;20216;-67
2021/05/05 11:11:38;;;;;;;2.10;0.40;;;8.50;99.90;;;;;;5053490;28;20179;-66
2021/05/05 11:14:04;;;;;;;2.20;0.60;;;8.10;99.90;;;;;;5044981;28;20260;-66
2021/05/05 11:16:55;;;;;;;2.13;0.40;;;7.80;99.90;;;;;;5056486;28;20595;-67
2021/05/05 11:19:36;;;;;;;2.90;0.70;;;7.50;99.90;;;;;;5055577;28;20498;-63
2021/05/05 11:22:17;;;;;;;2.50;0.70;;;7.40;99.90;;;;;;5040433;28;20184;-63
2021/05/05 11:24:46;;;;;;;2.40;0.50;;;7.40;99.90;;;;;;5028640;28;20646;-63
2021/05/05 11:27:15;;;;;;;4.07;0.40;;;7.30;99.90;;;;;;5029435;28;20181;-65
2021/05/05 11:29:54;;;;;;;2.60;0.65;;;7.50;99.90;;;;;;5031680;28;20746;-64
2021/05/05 11:32:24;;;;;;;2.80;0.75;;;7.60;99.90;;;;;;5033601;28;20196;-64
2021/05/05 11:34:50;;;;;;;3.85;1.33;;;7.90;99.90;;;;;;5034362;28;20174;-65
2021/05/05 11:37:27;;;;;;;2.63;0.47;;;8.10;99.90;;;;;;5048591;28;20197;-65
2021/05/05 11:40:02;;;;;;;3.60;0.65;;;8.50;99.90;;;;;;5046757;28;20260;-68
2021/05/05 11:42:27;;;;;;;2.65;0.40;;;9.10;99.90;;;;;;5052588;28;20631;-67
2021/05/05 11:44:55;;;;;;;2.80;0.60;;;9.70;99.90;;;;;;5056496;28;20246;-67
2021/05/05 11:47:26;;;;;;;2.80;0.70;;;10.10;99.90;;;;;;5038228;28;20182;-67
2021/05/05 11:50:07;;;;;;;2.70;0.50;;;10.50;99.90;;;;;;5055315;28;20259;-65
2021/05/05 11:52:35;;;;;;;2.70;0.50;;;10.90;99.90;;;;;;5047523;28;20184;-65
2021/05/05 11:55:20;;;;;;;2.63;0.47;;;11.30;99.90;;;;;;5029548;28;20186;-65
2021/05/05 11:57:49;;;;;;;2.70;0.73;;;11.50;99.90;;;;;;5045439;28;20551;-66
2021/05/05 12:00:33;;;;;;;2.50;0.30;;;11.70;99.90;;;;;;5050359;28;20436;-67
2021/05/05 12:03:07;;;;;;;2.83;0.80;;;11.90;99.90;;;;;;5061015;28;20810;-65
2021/05/05 12:05:36;;;;;;;3.15;0.52;;;11.90;98.70;;;;;;5056274;28;20540;-64
2021/05/05 12:08:07;;;;;;;3.10;0.70;;;11.90;97.60;;;;;;5046057;28;20195;-69
2021/05/05 12:10:44;;;;;;;2.70;0.70;;;11.90;97.70;;;;;;5053391;28;20841;-64
2021/05/05 12:13:15;;;;;;;2.90;0.75;;;11.80;99.10;;;;;;5046780;28;20279;-67
2021/05/05 12:16:04;;;;;;;3.58;0.60;;;11.80;98.80;;;;;;5061771;28;20598;-65
2021/05/05 12:18:50;;;;;;;2.50;0.30;;;11.90;99.90;;;;;;5055346;28;20206;-64
2021/05/05 12:21:22;;;;;;;2.90;0.80;;;12.20;98.50;;;;;;5054614;28;20432;-63
2021/05/05 12:23:52;;;;;;;2.60;0.57;;;12.40;95.30;;;;;;5057122;28;20440;-65
2021/05/05 12:26:22;;;;;;;3.20;0.87;;;12.40;95.50;;;;;;5054744;28;20889;-65
2021/05/05 12:28:52;;;;;;;2.70;0.60;;;12.50;95.40;;;;;;5052150;28;20469;-68
2021/05/05 12:31:20;;;;;;;2.60;0.57;;;12.50;94.80;;;;;;5055606;28;20402;-65
2021/05/05 12:33:48;;;;;;;2.90;0.60;;;12.50;95.90;;;;;;5055109;28;20552;-68
2021/05/05 12:36:19;;;;;;;2.90;0.70;;;12.70;95.40;;;;;;5055220;28;20451;-67
2021/05/05 12:38:48;;;;;;;3.87;0.60;;;12.70;94.30;;;;;;5064386;28;20503;-65
2021/05/05 12:41:25;;;;;;;2.90;1.00;;;12.80;99.10;;;;;;5054629;28;20424;-65
2021/05/05 12:43:56;;;;;;;6.77;1.07;;;13.20;95.30;;;;;;5053860;28;20418;-62
2021/05/05 12:46:32;;;;;;;2.50;0.40;;;12.70;93.20;;;;;;5052695;28;21208;-65
2021/05/05 12:49:01;;;;;;;3.27;0.70;;;12.80;94.30;;;;;;5054783;28;20430;-66
2021/05/05 12:51:36;;;;;;;2.40;0.30;;;12.90;93.50;;;;;;5073978;28;20466;-63
2021/05/05 12:54:03;;;;;;;2.83;0.80;;;12.80;91.90;;;;;;5053015;28;20424;-70
2021/05/05 12:56:39;;;;;;;6.07;0.67;;;12.80;91.90;;;;;;5067172;28;20483;-62
2021/05/05 12:59:05;;;;;;;2.80;0.80;;;12.90;91.80;;;;;;5064929;28;20866;-68
2021/05/05 13:01:31;;;;;;;3.15;0.50;;;12.90;90.50;;;;;;5062669;28;20398;-63
2021/05/05 13:03:57;;;;;;;2.93;0.87;;;13.00;90.90;;;;;;5066196;28;20222;-62
2021/05/05 13:06:40;;;;;;;4.00;1.07;;;13.00;90.20;;;;;;5054024;28;20508;-66